Hauptseite
METAR-TAF:

METAR-TAF

Flughäfen :

Flughafen Sfax

Sfax, Tunesien

Breite: 34-43N, Länge: 010-41E, Höhe: 21 m

Beobachtung

Neuester Wetterbericht von vor 47 Minuten, um 10:00 UTC
Wind 7 kt aus Nord, variierte zwischen Nordwest und Nordost
Temperatur 25°C
Luftfeuchtigkeit 44%
Luftdruck 1015 hPa
Sichtweite: 8000 m
Leicht bewölkt in der Höhe von 3000 ft

METAR: DTTX 251000Z 35007KT 320V050 8000 FEW030 25/12 Q1015

Zeit: 11:47 (10:47 UTC)

Prognose

Neuester Wetterbericht von vor 5 Stunden und 47 Minuten, um 05:00 UTC
Gültige Prognose vom 25 um 06 UTC bis 26 um 06 UTC
Wind 12 kt aus Nord
Sichtweite: 8000 m
Leicht bewölkt in der Höhe von 3000 ft
Übergehend zu
vom 25 um 09 UTC bis 25 um 11 UTC
Wind 13 kt aus Ost/Nordost
Übergehend zu
vom 25 um 20 UTC bis 25 um 22 UTC
Wind 8 kt aus Nord/Nordost

TAF: DTTX 250500Z 2506/2606 01012KT 8000 FEW030 BECMG 2509/2511 07013KT BECMG 2520/2522 03008KT

Wetterbeobachtungen und Prognosen von mehr als 4000 Flughäfen (METAR und TAF Bericht).

Die verfügbaren Stationen werden durch gelbe und rote Markierungen auf der Karte dargestellt.

Führen Sie die Maus auf sie, um den Namen der Station zu sehen.

Darauf klicken, um die Beobachtung von Wetterbeobachtungen und Prognosen zu sehen.

Um die Karte zu ändern : klicken Sie auf den grünen Tasten mit einem schwarzen Kreuz Zum Vergrößern, auf den grünen Button mit einem Gedankenstrich zu verkleinern, oder auf die grünen Pfeile für benachbarte Karten.


METAR-TAF: